Weather History for Versailles, OH

Change the Weather History Date:

Saturday, December 14, 2013

  Actual Average (KDAY) Record (KDAY)
Temperature  
Mean Temperature 28 °F 31 °F  
Max Temperature 33 °F 38 °F 66 °F (1901)
Min Temperature 24 °F 25 °F -15 °F (1898)
Degree Days  
Heating Degree Days 36 34  
Month to date heating degree days 440  
Since 1 July heating degree days 1551  
Cooling Degree Days 0 0  
Month to date cooling degree days 0  
Year to date cooling degree days 891  
Moisture  
Dew Point 31 °F    
Average Humidity 100    
Maximum Humidity 100    
Minimum Humidity 93    
Precipitation  
Precipitation 0.19 in 0.09 in 1.70 in (1901)
Month to date precipitation 1.43  
Year to date precipitation 39.36  
Snow  
Snow 0.00 in 0.10 in 6.20 in (1951)
Month to date snowfall 1.5  
Since 1 July snowfall 2.5  
Snow Depth -    
Sea Level Pressure  
Sea Level Pressure 29.89 in    
Wind  
Wind Speed 8 mph (East)    
Max Wind Speed 16 mph    
Max Gust Speed 21 mph    
Visibility 3 miles    
Events Rain , Snow    
T = Trace of Precipitation, MM = Missing Value Source: NWS Daily Summary

Daily Weather History Graph

Daily Weather History Graph

Search for Another Location

Airport:

Trip Planner

Search our weather history database for the weather conditions in past years. The results will help you decide how hot, cold, wet, or windy it might be!

Date:

Astronomy

Dec. 14, 2013 Rise Set
Actual Time 7:52 AM EST 5:12 PM EST
Civil Twilight 7:22 AM EST 5:43 PM EST
Nautical Twilight 6:48 AM EST 6:17 PM EST
Astronomical Twilight 6:15 AM EST 6:50 PM EST
Moon 3:34 PM EST (12/14) 5:12 AM EST (12/14)
Length of Visible Light 10h 21m
Length of Day
9h 20m
Waxing Gibbous, 93% of the Moon is Illuminated
Dec 14
Waxing Gibbous
Dec 17
Full
Dec 25
Last Quarter
Jan 1
New
Jan 7
First Quarter

Hourly Weather History & Observations

Time (EST) Temp. Windchill Dew Point Humidity Pressure Visibility Wind Dir Wind Speed Gust Speed Precip Events Conditions
12:15 AM 30.2 °F 26.7 °F 30.2 °F 100% 30.15 in 2.0 mi SE 3.5 mph - 0.01 in Snow Light Snow
12:35 AM 30.2 °F 26.7 °F 30.2 °F 100% 30.15 in 2.0 mi ESE 3.5 mph - 0.02 in Snow Light Snow
12:55 AM 30.2 °F - 30.2 °F 100% 30.14 in 1.5 mi Calm Calm - 0.03 in Snow Light Snow
1:15 AM 30.2 °F 24.3 °F 30.2 °F 100% 30.13 in 2.0 mi East 5.8 mph - N/A Snow Light Snow
1:35 AM 32.0 °F 26.4 °F 32.0 °F 100% 30.12 in 2.5 mi East 5.8 mph - N/A Snow Light Snow
1:55 AM 32.0 °F 26.4 °F 32.0 °F 100% 30.12 in 1.8 mi East 5.8 mph - N/A Snow Light Snow
2:15 AM 32.0 °F 25.6 °F 32.0 °F 100% 30.11 in 1.5 mi East 6.9 mph - N/A Snow Light Snow
2:35 AM 32.0 °F 25.6 °F 32.0 °F 100% 30.11 in 2.0 mi East 6.9 mph - N/A Snow Light Snow
2:55 AM 32.0 °F 27.5 °F 32.0 °F 100% 30.08 in 2.0 mi ENE 4.6 mph - N/A   Overcast
3:15 AM 32.0 °F 23.6 °F 32.0 °F 100% 30.11 in 3.0 mi East 10.4 mph - N/A   Overcast
3:35 AM 32.0 °F 23.6 °F 32.0 °F 100% 30.09 in 3.0 mi ESE 10.4 mph - N/A   Overcast
3:55 AM 32.0 °F 24.2 °F 32.0 °F 100% 30.08 in 2.0 mi ESE 9.2 mph - N/A   Overcast
4:15 AM 32.0 °F 24.8 °F 32.0 °F 100% 30.07 in 2.5 mi ESE 8.1 mph - N/A   Overcast
4:35 AM 32.0 °F 24.2 °F 32.0 °F 100% 30.07 in 5.0 mi ESE 9.2 mph - N/A   Overcast
4:55 AM 32.0 °F 24.8 °F 32.0 °F 100% 30.06 in 2.5 mi East 8.1 mph - N/A   Overcast
5:15 AM 32.0 °F 24.8 °F 32.0 °F 100% 30.05 in 3.0 mi ESE 8.1 mph - N/A   Overcast
5:35 AM 32.0 °F 23.6 °F 32.0 °F 100% 30.04 in 2.0 mi ESE 10.4 mph - N/A Snow Light Snow
5:55 AM 32.0 °F 23.6 °F 32.0 °F 100% 30.03 in 2.5 mi ESE 10.4 mph - N/A   Overcast
6:15 AM 32.0 °F 23.0 °F 32.0 °F 100% 30.02 in 4.0 mi ESE 11.5 mph - N/A   Overcast
6:35 AM 32.0 °F 22.5 °F 32.0 °F 100% 30.01 in 4.0 mi ESE 12.7 mph - N/A Snow Light Snow
6:55 AM 32.0 °F 22.1 °F 32.0 °F 100% 30.01 in 3.0 mi SE 13.8 mph 17.3 mph N/A Snow Light Snow
7:15 AM 32.0 °F 22.5 °F 32.0 °F 100% 30.00 in 5.0 mi ESE 12.7 mph - N/A Snow Light Snow
7:35 AM 32.0 °F 22.5 °F 32.0 °F 100% 29.99 in 5.0 mi ESE 12.7 mph - N/A   Overcast
7:55 AM 32.0 °F 22.5 °F 32.0 °F 100% 29.99 in 3.0 mi SE 12.7 mph - N/A Snow Light Snow
8:15 AM 32.0 °F 23.0 °F 32.0 °F 100% 29.97 in 1.5 mi ESE 11.5 mph 17.3 mph N/A Snow Light Snow
8:35 AM 32.0 °F 22.1 °F 32.0 °F 100% 29.97 in 1.5 mi ESE 13.8 mph 17.3 mph N/A Snow Light Snow
8:55 AM 32.0 °F 22.5 °F 32.0 °F 100% 29.96 in 1.2 mi SE 12.7 mph - N/A Snow Light Snow
9:15 AM 32.0 °F 23.6 °F 32.0 °F 100% 29.95 in 1.5 mi ESE 10.4 mph - N/A Snow Light Snow
9:35 AM 32.0 °F 23.0 °F 32.0 °F 100% 29.95 in 3.0 mi ESE 11.5 mph - N/A Snow Light Snow
9:55 AM 32.0 °F 23.6 °F 32.0 °F 100% 29.94 in 1.2 mi ESE 10.4 mph - N/A Snow Light Snow
10:15 AM 32.0 °F 24.2 °F 32.0 °F 100% 29.93 in 1.0 mi SE 9.2 mph - 0.01 in Snow Light Snow
10:35 AM 32.0 °F 23.6 °F 32.0 °F 100% 29.91 in 1.0 mi ESE 10.4 mph - 0.02 in Snow Light Snow
10:55 AM 32.0 °F 23.6 °F 32.0 °F 100% 29.89 in 1.8 mi ESE 10.4 mph - 0.03 in Snow Light Snow
11:15 AM 32.0 °F 23.6 °F 32.0 °F 100% 29.87 in 1.8 mi ESE 10.4 mph - N/A Snow Light Snow
11:35 AM 32.0 °F 23.6 °F 32.0 °F 100% 29.87 in 2.5 mi ESE 10.4 mph - 0.01 in Snow Light Snow
11:55 AM 32.0 °F 23.0 °F 32.0 °F 100% 29.85 in 3.0 mi ESE 11.5 mph - 0.01 in Snow Light Snow
12:15 PM 32.0 °F 24.2 °F 32.0 °F 100% 29.83 in 3.0 mi ESE 9.2 mph - 0.01 in Snow Light Snow
12:35 PM 33.8 °F 26.4 °F 33.8 °F 100% 29.81 in 7.0 mi ESE 9.2 mph - 0.01 in Rain Light Rain
12:55 PM 33.8 °F 26.4 °F 33.8 °F 100% 29.78 in 7.0 mi ESE 9.2 mph - 0.01 in Rain Light Rain
1:15 PM 33.8 °F 27.7 °F 33.8 °F 100% 29.76 in 5.0 mi ESE 6.9 mph - N/A Rain Light Rain
1:35 PM 33.8 °F 28.6 °F 33.8 °F 100% 29.74 in 3.0 mi ESE 5.8 mph - 0.03 in Rain Rain
1:55 PM 33.8 °F 28.6 °F 33.8 °F 100% 29.73 in 5.0 mi ESE 5.8 mph - 0.04 in Rain Light Rain
2:15 PM 33.8 °F 27.0 °F 33.8 °F 100% 29.73 in 3.0 mi SE 8.1 mph - 0.01 in Rain Light Rain
2:35 PM 33.8 °F 28.6 °F 33.8 °F 100% 29.72 in 5.0 mi ESE 5.8 mph - 0.02 in Rain Light Rain
2:55 PM 33.8 °F 28.6 °F 33.8 °F 100% 29.72 in 4.0 mi East 5.8 mph - 0.03 in Rain Light Rain
3:15 PM 33.8 °F 28.6 °F 33.8 °F 100% 29.71 in 3.0 mi ESE 5.8 mph - 0.02 in Rain Light Rain
3:35 PM 33.8 °F 30.8 °F 33.8 °F 100% 29.71 in 4.0 mi ENE 3.5 mph - 0.03 in Rain Light Rain
3:55 PM 33.8 °F - 33.8 °F 100% 29.71 in 7.0 mi Calm Calm - 0.03 in   Light Drizzle
4:15 PM 33.8 °F - 33.8 °F 100% 29.70 in 1.2 mi Calm Calm - N/A   Light Drizzle
4:35 PM 33.8 °F 30.8 °F 33.8 °F 100% 29.71 in 1.5 mi North 3.5 mph - N/A   Light Drizzle
4:55 PM 33.8 °F 29.6 °F 33.8 °F 100% 29.72 in 1.0 mi North 4.6 mph - N/A Rain Rain
5:15 PM 32.0 °F 26.4 °F 32.0 °F 100% 29.71 in 1.5 mi North 5.8 mph - 0.01 in Rain Light Rain
5:35 PM 32.0 °F 25.6 °F 32.0 °F 100% 29.71 in 2.5 mi North 6.9 mph - 0.01 in Snow Light Snow
5:55 PM 32.0 °F 24.8 °F 32.0 °F 100% 29.71 in 3.0 mi North 8.1 mph - 0.01 in   Overcast
6:15 PM 32.0 °F 24.8 °F 32.0 °F 100% 29.72 in 3.0 mi North 8.1 mph - N/A   Overcast
6:35 PM 32.0 °F 23.6 °F 32.0 °F 100% 29.72 in 2.5 mi NNW 10.4 mph - N/A   Overcast
6:55 PM 30.2 °F 20.2 °F 30.2 °F 100% 29.73 in 3.0 mi NNW 12.7 mph - N/A   Overcast
7:15 PM 30.2 °F 20.2 °F 30.2 °F 100% 29.73 in 4.0 mi North 12.7 mph - N/A   Overcast
7:35 PM 30.2 °F 20.8 °F 30.2 °F 100% 29.74 in 4.0 mi North 11.5 mph - N/A   Overcast
7:55 PM 30.2 °F 20.2 °F 30.2 °F 100% 29.75 in 4.0 mi NNW 12.7 mph 18.4 mph N/A   Overcast
8:15 PM 28.4 °F 16.6 °F 28.4 °F 100% 29.76 in 4.0 mi NNW 16.1 mph 19.6 mph N/A   Overcast
8:35 PM 26.6 °F 15.2 °F 26.6 °F 100% 29.77 in 7.0 mi NNW 13.8 mph - N/A   Overcast
8:55 PM 26.6 °F 17.5 °F 26.6 °F 100% 29.77 in 5.0 mi NW 9.2 mph - N/A   Overcast
9:15 PM 26.6 °F 15.2 °F 26.6 °F 100% 29.78 in 5.0 mi NNW 13.8 mph - N/A   Overcast
9:35 PM 26.6 °F 16.2 °F 26.6 °F 100% 29.79 in 5.0 mi NNW 11.5 mph - N/A   Overcast
9:55 PM 24.8 °F 13.4 °F 24.8 °F 100% 29.80 in 5.0 mi NW 12.7 mph - N/A   Overcast
10:15 PM 24.8 °F 12.9 °F 24.8 °F 100% 29.81 in 5.0 mi NW 13.8 mph 20.7 mph N/A   Overcast
10:35 PM 24.8 °F 13.4 °F 24.8 °F 100% 29.82 in 7.0 mi NW 12.7 mph - N/A   Overcast
10:55 PM 24.8 °F 14.0 °F 24.8 °F 100% 29.82 in 5.0 mi NW 11.5 mph - N/A   Overcast
11:15 PM 24.8 °F 14.6 °F 23.0 °F 93% 29.83 in 7.0 mi NW 10.4 mph 16.1 mph N/A   Overcast
11:35 PM 24.8 °F 14.0 °F 24.8 °F 100% 29.84 in 7.0 mi NW 11.5 mph 16.1 mph N/A   Overcast
11:55 PM 24.8 °F 14.6 °F 24.8 °F 100% 29.84 in 7.0 mi NW 10.4 mph - N/A   Overcast